Time;durP1;ratioP1;P1;durP2;ratioP2;P2;SDS_P1;SDS_P2;PMS_P1;PMS_P2;Temp;Humidity;BMP_temperature;BMP_pressure;BME280_temperature;BME280_humidity;BME280_pressure;Samples;Min_cycle;Max_cycle;Signal;HPM_P1;HPM_P2
2021/06/16 00:04:17;;;;;;;2.83;2.08;;;26.10;99.90;;;;;;20908167;28;20241;-70
2021/06/16 00:14:21;;;;;;;3.78;2.10;;;26.20;99.90;;;;;;20907847;28;20212;-70
2021/06/16 00:24:26;;;;;;;1.98;1.67;;;26.00;99.90;;;;;;20906942;28;20229;-70
2021/06/16 00:34:31;;;;;;;8.80;1.70;;;26.00;99.90;;;;;;20905415;28;20229;-71
2021/06/16 00:44:36;;;;;;;2.63;1.35;;;25.90;99.90;;;;;;20870996;28;20229;-71
2021/06/16 00:54:39;;;;;;;2.17;1.40;;;25.80;99.90;;;;;;20904575;28;20269;-69
2021/06/16 01:04:45;;;;;;;2.22;1.23;;;25.70;99.90;;;;;;20947176;23;20243;-68
2021/06/16 01:14:51;;;;;;;4.40;1.85;;;25.80;99.90;;;;;;20990767;28;20277;-68
2021/06/16 01:25:01;;;;;;;2.13;1.70;;;25.80;99.90;;;;;;20985929;28;20584;-68
2021/06/16 01:35:08;;;;;;;1.35;1.25;;;25.80;99.90;;;;;;20986236;28;20223;-68
2021/06/16 01:45:12;;;;;;;1.75;1.10;;;25.80;99.90;;;;;;20985579;28;20338;-67
2021/06/16 01:55:20;;;;;;;2.35;1.40;;;25.70;99.90;;;;;;20985251;28;20197;-68
2021/06/16 02:05:25;;;;;;;2.10;1.58;;;25.60;99.90;;;;;;20871932;22;20229;-71
2021/06/16 02:15:36;;;;;;;1.98;1.42;;;25.50;99.90;;;;;;20815869;28;20222;-70
2021/06/16 02:25:40;;;;;;;1.40;1.25;;;25.50;99.90;;;;;;20815683;28;20657;-70
2021/06/16 02:35:45;;;;;;;1.88;1.63;;;25.50;99.90;;;;;;20814659;28;20653;-68
2021/06/16 02:45:50;;;;;;;2.50;2.30;;;25.60;99.90;;;;;;20815064;28;20198;-69
2021/06/16 02:56:01;;;;;;;2.63;1.92;;;25.60;99.90;;;;;;20814433;28;20221;-69
2021/06/16 03:06:05;;;;;;;1.75;1.25;;;25.60;99.90;;;;;;20814378;28;20248;-69
2021/06/16 03:16:11;;;;;;;3.50;2.10;;;25.70;99.90;;;;;;20814112;28;20652;-70
2021/06/16 03:26:17;;;;;;;2.50;1.88;;;25.80;99.90;;;;;;20810734;28;20202;-70
2021/06/16 03:36:23;;;;;;;3.80;2.38;;;25.40;99.90;;;;;;20812316;28;20226;-68
2021/06/16 03:46:29;;;;;;;5.73;2.67;;;25.00;99.90;;;;;;20824664;28;20205;-68
2021/06/16 03:56:34;;;;;;;3.10;2.42;;;24.60;99.90;;;;;;20829686;28;20567;-69
2021/06/16 04:06:42;;;;;;;4.03;2.10;;;24.60;99.90;;;;;;20826288;28;20607;-70
2021/06/16 04:16:48;;;;;;;3.10;2.30;;;24.50;99.90;;;;;;20825364;28;20313;-70
2021/06/16 04:26:52;;;;;;;3.13;2.00;;;24.50;99.90;;;;;;20824776;28;20194;-69
2021/06/16 04:36:57;;;;;;;3.42;1.85;;;24.50;99.90;;;;;;20821111;28;20253;-68
2021/06/16 04:47:01;;;;;;;3.50;2.13;;;24.60;99.90;;;;;;20821333;28;20216;-68
2021/06/16 04:57:07;;;;;;;2.90;1.83;;;25.00;99.90;;;;;;20820522;28;20344;-68
2021/06/16 05:07:11;;;;;;;3.70;2.13;;;24.80;99.90;;;;;;20818560;28;20600;-68
2021/06/16 05:17:17;;;;;;;2.38;1.88;;;25.00;99.90;;;;;;20820254;28;20279;-70
2021/06/16 05:27:21;;;;;;;3.20;2.45;;;25.20;99.90;;;;;;20815330;28;20256;-68
2021/06/16 05:37:26;;;;;;;3.28;2.20;;;25.80;99.90;;;;;;20813655;28;20308;-69
2021/06/16 05:47:30;;;;;;;9.38;1.73;;;25.90;99.90;;;;;;20814223;28;20206;-69
2021/06/16 05:57:35;;;;;;;7.70;2.35;;;26.00;99.90;;;;;;20812327;28;20240;-66
2021/06/16 06:07:39;;;;;;;2.42;1.55;;;26.50;99.90;;;;;;20812021;28;20214;-69
2021/06/16 06:17:44;;;;;;;2.70;2.50;;;26.50;99.90;;;;;;20813105;28;20218;-69
2021/06/16 06:27:47;;;;;;;3.67;2.78;;;26.80;99.90;;;;;;20811210;28;20666;-70
2021/06/16 06:37:53;;;;;;;3.78;1.88;;;27.10;99.90;;;;;;20812313;28;20260;-70
2021/06/16 06:47:56;;;;;;;38.33;9.40;;;27.20;99.90;;;;;;20813263;28;20285;-68
2021/06/16 06:58:02;;;;;;;7.88;2.13;;;27.70;99.90;;;;;;20813319;28;20225;-69
2021/06/16 07:08:07;;;;;;;4.43;2.88;;;28.10;99.90;;;;;;20809354;28;20691;-68
2021/06/16 07:18:13;;;;;;;1.70;1.60;;;28.00;99.90;;;;;;20818681;28;20241;-69
2021/06/16 07:28:17;;;;;;;3.65;2.03;;;27.80;99.90;;;;;;20825051;28;20667;-70
2021/06/16 07:38:23;;;;;;;1.40;1.30;;;27.80;99.90;;;;;;20825946;28;20247;-68
2021/06/16 07:48:26;;;;;;;4.65;3.13;;;28.00;99.90;;;;;;20826165;28;20683;-69
2021/06/16 07:58:31;;;;;;;2.67;1.80;;;27.80;99.90;;;;;;20824924;28;20206;-68
2021/06/16 08:08:35;;;;;;;3.63;1.60;;;27.40;99.90;;;;;;20825171;28;20222;-70
2021/06/16 08:18:43;;;;;;;3.05;2.13;;;27.30;99.90;;;;;;20823850;28;20220;-69
2021/06/16 08:28:47;;;;;;;2.38;1.92;;;27.80;99.90;;;;;;20822364;28;20640;-69
2021/06/16 08:38:52;;;;;;;2.72;2.25;;;27.60;99.90;;;;;;20822005;28;20293;-68
2021/06/16 08:48:56;;;;;;;4.38;2.30;;;27.60;99.90;;;;;;20821198;28;20352;-69
2021/06/16 08:59:01;;;;;;;4.57;3.42;;;28.00;99.90;;;;;;20818599;28;20309;-68
2021/06/16 09:09:06;;;;;;;2.83;2.03;;;28.00;99.90;;;;;;20811120;28;20259;-69
2021/06/16 09:19:23;;;;;;;2.70;2.28;;;27.60;99.90;;;;;;20815128;28;20296;-69
2021/06/16 09:29:30;;;;;;;4.40;2.97;;;27.80;99.90;;;;;;20817052;28;20257;-76
2021/06/16 09:39:35;;;;;;;4.13;2.95;;;27.90;99.90;;;;;;20816538;28;20198;-67
2021/06/16 09:50:04;;;;;;;3.97;2.10;;;28.20;99.90;;;;;;20816606;28;20336;-68
2021/06/16 10:00:12;;;;;;;3.97;2.28;;;28.10;99.90;;;;;;20806454;28;20238;-69
2021/06/16 10:10:17;;;;;;;4.07;2.20;;;28.70;99.90;;;;;;20813767;28;20230;-69
2021/06/16 10:20:26;;;;;;;7.63;2.28;;;28.80;99.90;;;;;;20811214;28;20285;-68
2021/06/16 10:30:38;;;;;;;2.13;1.80;;;29.40;99.90;;;;;;20812300;28;20704;-68
2021/06/16 10:40:50;;;;;;;3.05;1.83;;;29.60;99.90;;;;;;20811436;28;20193;-68
2021/06/16 10:51:30;;;;;;;2.20;1.67;;;30.30;99.90;;;;;;20818578;28;20301;-67
2021/06/16 11:01:47;;;;;;;2.90;1.58;;;30.40;99.90;;;;;;20844349;28;20604;-70
2021/06/16 11:12:11;;;;;;;3.13;2.03;;;30.40;99.90;;;;;;20829391;28;20577;-70
2021/06/16 11:22:40;;;;;;;2.35;2.15;;;30.00;99.90;;;;;;20819081;28;20289;-70
2021/06/16 11:33:04;;;;;;;2.78;2.35;;;30.60;99.90;;;;;;20824893;28;20221;-70
2021/06/16 11:43:09;;;;;;;2.22;1.48;;;31.00;99.90;;;;;;20825186;28;20650;-70
2021/06/16 11:53:13;;;;;;;1.80;1.52;;;31.10;99.90;;;;;;20831178;28;20253;-69
2021/06/16 12:03:18;;;;;;;3.50;2.45;;;32.00;99.90;;;;;;20825120;28;20256;-69
2021/06/16 12:13:28;;;;;;;8.77;2.97;;;32.40;99.90;;;;;;20825165;28;20229;-70
2021/06/16 12:23:37;;;;;;;3.17;2.38;;;31.80;99.90;;;;;;20824829;28;20198;-72
2021/06/16 12:33:47;;;;;;;3.95;2.42;;;32.00;99.90;;;;;;20821270;28;20229;-71
2021/06/16 12:44:20;;;;;;;4.20;1.88;;;32.70;99.90;;;;;;20820899;28;20666;-71
2021/06/16 12:54:32;;;;;;;2.15;1.80;;;33.30;99.90;;;;;;20820138;28;20728;-71
2021/06/16 13:04:52;;;;;;;2.28;2.08;;;32.90;99.90;;;;;;20819605;28;20250;-71
2021/06/16 13:15:02;;;;;;;2.15;1.95;;;30.70;99.90;;;;;;20817330;28;20224;-70
2021/06/16 13:25:09;;;;;;;2.30;2.03;;;31.90;99.90;;;;;;20809259;28;20624;-70
2021/06/16 13:35:13;;;;;;;3.67;2.28;;;32.30;99.90;;;;;;20817040;28;20295;-69
2021/06/16 13:45:21;;;;;;;3.05;2.78;;;31.50;99.90;;;;;;20816799;28;20197;-69
2021/06/16 13:55:25;;;;;;;1.58;1.08;;;30.80;99.90;;;;;;20814065;28;20213;-68
2021/06/16 14:05:31;;;;;;;66.55;43.22;;;29.50;99.90;;;;;;20805597;28;20218;-71
2021/06/16 14:15:36;;;;;;;1.08;0.88;;;29.20;99.90;;;;;;20813675;28;20229;-72
2021/06/16 14:25:42;;;;;;;1.10;1.00;;;28.40;99.90;;;;;;20812181;28;20186;-67
2021/06/16 14:35:48;;;;;;;2.00;1.17;;;28.90;99.90;;;;;;20811744;28;20229;-68
2021/06/16 14:45:54;;;;;;;2.60;1.58;;;29.10;99.90;;;;;;20811934;28;20220;-68
2021/06/16 14:55:59;;;;;;;1.35;1.23;;;28.70;99.90;;;;;;20809309;28;20324;-70
2021/06/16 15:06:04;;;;;;;1.33;0.85;;;28.50;99.90;;;;;;20810209;28;20309;-73
2021/06/16 15:16:07;;;;;;;1.17;1.00;;;28.10;99.90;;;;;;20810786;28;20699;-75
2021/06/16 15:26:14;;;;;;;0.80;0.80;;;28.20;99.90;;;;;;20809113;28;20580;-70
2021/06/16 15:36:18;;;;;;;1.17;1.08;;;27.70;99.90;;;;;;20812038;28;20250;-70
2021/06/16 15:46:23;;;;;;;2.80;1.25;;;27.60;99.90;;;;;;20822870;28;20672;-70
2021/06/16 15:56:27;;;;;;;1.23;1.13;;;27.20;99.90;;;;;;20821658;28;20672;-67
2021/06/16 16:06:33;;;;;;;1.70;1.55;;;27.20;99.90;;;;;;20818089;28;20242;-69
2021/06/16 16:16:36;;;;;;;9.20;1.70;;;27.00;99.90;;;;;;20820205;28;20248;-68
2021/06/16 16:26:43;;;;;;;1.25;1.15;;;26.90;99.90;;;;;;20834099;28;20504;-69
2021/06/16 16:36:47;;;;;;;1.17;1.00;;;27.30;99.90;;;;;;20818279;28;20638;-68
2021/06/16 16:46:55;;;;;;;1.05;0.93;;;27.30;99.90;;;;;;20819456;28;20186;-69
2021/06/16 16:56:59;;;;;;;1.13;0.90;;;28.10;99.90;;;;;;20819173;28;20221;-69
2021/06/16 17:07:06;;;;;;;1.17;1.08;;;28.20;99.90;;;;;;20817726;28;20232;-72
2021/06/16 17:17:09;;;;;;;0.70;0.52;;;28.50;99.90;;;;;;20818179;28;20217;-69
2021/06/16 17:27:15;;;;;;;1.40;1.00;;;28.80;99.90;;;;;;20817526;28;20686;-68
2021/06/16 17:37:18;;;;;;;2.20;1.75;;;28.90;99.90;;;;;;20813260;28;20230;-69
2021/06/16 17:47:23;;;;;;;1.70;1.15;;;28.50;99.90;;;;;;20813301;28;20671;-70
2021/06/16 17:57:27;;;;;;;1.58;0.90;;;27.70;99.90;;;;;;20813987;28;20237;-69
2021/06/16 18:07:33;;;;;;;2.35;1.30;;;28.50;99.90;;;;;;20829865;28;20236;-69
2021/06/16 18:17:36;;;;;;;3.08;1.55;;;28.60;99.90;;;;;;20811628;28;20290;-70
2021/06/16 18:27:44;;;;;;;2.15;1.95;;;28.00;99.90;;;;;;20811746;28;20209;-68
2021/06/16 18:37:49;;;;;;;1.67;1.58;;;27.60;99.90;;;;;;20812095;28;20214;-69
2021/06/16 18:47:59;;;;;;;2.65;1.33;;;26.50;99.90;;;;;;20813632;28;20201;-68
2021/06/16 18:58:03;;;;;;;2.65;1.10;;;26.10;99.90;;;;;;20810311;28;20388;-68
2021/06/16 19:08:11;;;;;;;3.13;1.77;;;26.00;99.90;;;;;;20809864;28;20312;-72
2021/06/16 19:18:15;;;;;;;2.33;2.13;;;25.60;99.90;;;;;;20824379;28;20260;-69
2021/06/16 19:28:20;;;;;;;2.25;1.55;;;25.60;99.90;;;;;;20825350;28;20202;-68
2021/06/16 19:38:24;;;;;;;1.90;1.73;;;25.40;99.90;;;;;;20823675;28;20220;-68
2021/06/16 19:48:29;;;;;;;1.77;1.63;;;25.20;99.90;;;;;;20823362;28;20201;-70
2021/06/16 19:58:33;;;;;;;2.25;1.08;;;25.10;99.90;;;;;;20824635;28;20229;-69
2021/06/16 20:08:39;;;;;;;2.03;1.40;;;25.20;99.90;;;;;;20819950;28;20512;-70
2021/06/16 20:18:43;;;;;;;0.70;0.70;;;25.30;99.90;;;;;;20824288;28;20226;-70
2021/06/16 20:28:49;;;;;;;1.73;1.30;;;25.60;99.90;;;;;;20821136;28;20249;-69
2021/06/16 20:38:56;;;;;;;0.85;0.85;;;25.60;99.90;;;;;;20822774;28;20222;-70
2021/06/16 20:49:03;;;;;;;3.70;1.65;;;25.80;99.90;;;;;;20822832;28;20596;-67
2021/06/16 20:59:06;;;;;;;2.28;1.45;;;25.90;99.90;;;;;;20821204;28;20288;-69
2021/06/16 21:09:11;;;;;;;10.30;1.17;;;25.60;99.90;;;;;;20821268;28;20615;-68
2021/06/16 21:19:15;;;;;;;3.97;2.08;;;25.60;99.90;;;;;;20820731;28;20308;-72
2021/06/16 21:29:20;;;;;;;1.67;1.33;;;25.90;99.90;;;;;;20819446;28;20621;-73
2021/06/16 21:39:24;;;;;;;1.92;1.65;;;25.60;99.90;;;;;;20818453;28;20240;-73
2021/06/16 21:49:29;;;;;;;1.83;0.95;;;25.70;99.90;;;;;;20818112;28;20194;-71
2021/06/16 21:59:32;;;;;;;1.10;1.00;;;25.80;99.90;;;;;;20817532;28;20238;-72
2021/06/16 22:09:37;;;;;;;1.52;1.27;;;25.80;99.90;;;;;;20817941;28;20673;-72
2021/06/16 22:19:41;;;;;;;1.75;1.27;;;25.80;99.90;;;;;;20816860;28;20222;-72
2021/06/16 22:29:46;;;;;;;1.02;0.90;;;25.80;99.90;;;;;;20816705;28;20198;-72
2021/06/16 22:39:50;;;;;;;1.50;1.40;;;25.70;99.90;;;;;;20815387;28;20241;-72
2021/06/16 22:49:55;;;;;;;1.70;1.02;;;25.80;99.90;;;;;;20824049;28;20676;-72
2021/06/16 22:59:59;;;;;;;1.10;1.00;;;25.70;99.90;;;;;;20832373;28;20430;-73
2021/06/16 23:10:07;;;;;;;1.02;0.95;;;26.00;99.90;;;;;;20832067;28;20251;-71
2021/06/16 23:20:13;;;;;;;1.75;1.20;;;26.00;99.90;;;;;;20828224;28;20234;-71
2021/06/16 23:30:21;;;;;;;1.10;0.95;;;26.00;99.90;;;;;;20828681;28;20190;-71
2021/06/16 23:40:25;;;;;;;3.55;1.42;;;25.90;99.90;;;;;;20828525;28;20312;-71
2021/06/16 23:50:31;;;;;;;1.35;0.82;;;25.60;99.90;;;;;;20827972;28;20259;-70
